Time;durP1;ratioP1;P1;durP2;ratioP2;P2;SDS_P1;SDS_P2;PMS_P1;PMS_P2;Temp;Humidity;BMP_temperature;BMP_pressure;BME280_temperature;BME280_humidity;BME280_pressure;Samples;Min_cycle;Max_cycle;Signal;HPM_P1;HPM_P2
2022/07/12 00:00:47;;;;;;;2.33;1.83;;;16.40;99.90;;;;;;5111515;28;20491;-90
2022/07/12 00:03:33;;;;;;;4.50;2.27;;;16.30;99.90;;;;;;5109522;28;20456;-88
2022/07/12 00:06:19;;;;;;;2.53;2.17;;;16.30;99.90;;;;;;5111517;28;20460;-90
2022/07/12 00:09:05;;;;;;;3.40;2.93;;;16.30;99.90;;;;;;5109779;28;20452;-90
2022/07/12 00:11:51;;;;;;;2.90;2.50;;;16.20;99.90;;;;;;5105434;28;20436;-88
2022/07/12 00:14:36;;;;;;;2.60;2.07;;;16.30;99.90;;;;;;5112086;28;20441;-88
2022/07/12 00:17:24;;;;;;;2.73;2.13;;;16.30;99.90;;;;;;5111192;28;20469;-89
2022/07/12 00:20:10;;;;;;;2.90;2.50;;;16.20;99.90;;;;;;5110696;27;20476;-89
2022/07/12 00:22:56;;;;;;;4.33;2.10;;;16.10;99.90;;;;;;5105452;28;20424;-89
2022/07/12 00:25:42;;;;;;;2.90;2.03;;;16.00;99.90;;;;;;5105389;28;20444;-88
2022/07/12 00:28:27;;;;;;;3.10;2.00;;;15.90;99.90;;;;;;5107714;28;20566;-89
2022/07/12 00:31:13;;;;;;;2.90;1.63;;;15.90;99.90;;;;;;5109342;28;21049;-90
2022/07/12 00:34:00;;;;;;;2.40;1.80;;;15.80;99.90;;;;;;5108931;28;20785;-89
2022/07/12 00:36:46;;;;;;;2.23;1.90;;;15.80;99.90;;;;;;5111918;28;20415;-89
2022/07/12 00:39:32;;;;;;;2.93;2.10;;;15.80;99.90;;;;;;5108636;28;20464;-90
2022/07/12 00:42:17;;;;;;;3.77;2.17;;;15.90;99.90;;;;;;5107832;28;20514;-91
2022/07/12 00:45:03;;;;;;;3.90;1.87;;;15.80;99.90;;;;;;5109366;28;20444;-90
2022/07/12 00:47:51;;;;;;;2.63;2.07;;;15.80;99.90;;;;;;5111217;28;20440;-90
2022/07/12 00:50:39;;;;;;;3.30;2.30;;;15.70;99.90;;;;;;5110827;27;20446;-90
2022/07/12 00:53:25;;;;;;;2.87;2.07;;;15.60;99.90;;;;;;5108064;28;20437;-90
2022/07/12 00:56:13;;;;;;;2.70;2.20;;;15.70;99.90;;;;;;5109318;28;20435;-90
2022/07/12 00:58:58;;;;;;;2.90;2.10;;;15.80;99.90;;;;;;5107632;28;20554;-90
2022/07/12 01:01:44;;;;;;;3.40;2.13;;;15.80;99.90;;;;;;5107579;28;20436;-90
2022/07/12 01:04:30;;;;;;;2.33;1.87;;;15.90;99.90;;;;;;5109633;28;20444;-90
2022/07/12 01:07:18;;;;;;;3.30;1.93;;;15.80;99.90;;;;;;5107776;27;20949;-90
2022/07/12 01:10:05;;;;;;;2.93;2.30;;;15.80;99.90;;;;;;5122281;22;20500;-72
2022/07/12 01:12:51;;;;;;;2.50;2.00;;;15.80;99.90;;;;;;5104646;28;20607;-71
2022/07/12 01:15:38;;;;;;;3.47;2.20;;;15.70;99.90;;;;;;5109280;27;20533;-72
2022/07/12 01:18:26;;;;;;;2.40;2.00;;;15.80;99.90;;;;;;5108173;28;20448;-72
2022/07/12 01:21:17;;;;;;;5.20;2.00;;;15.80;99.90;;;;;;5104359;28;20553;-72
2022/07/12 01:24:06;;;;;;;2.30;1.70;;;15.70;99.90;;;;;;5102932;28;21000;-72
2022/07/12 01:26:52;;;;;;;2.90;2.40;;;15.70;99.90;;;;;;5107477;28;20439;-71
2022/07/12 01:29:37;;;;;;;3.27;2.37;;;15.70;99.90;;;;;;5106889;28;20950;-72
2022/07/12 01:32:26;;;;;;;6.30;2.30;;;15.60;99.90;;;;;;5106999;28;20993;-72
2022/07/12 01:35:13;;;;;;;2.27;1.97;;;15.60;99.90;;;;;;5103244;28;20449;-72
2022/07/12 01:37:58;;;;;;;7.10;2.50;;;15.50;99.90;;;;;;5103997;27;20583;-72
2022/07/12 01:40:45;;;;;;;2.50;2.10;;;15.40;99.90;;;;;;5108191;28;20618;-71
2022/07/12 01:43:31;;;;;;;5.40;2.10;;;15.30;99.90;;;;;;5101287;28;20464;-71
2022/07/12 01:46:17;;;;;;;2.53;2.30;;;15.40;99.90;;;;;;5103377;28;20825;-71
2022/07/12 01:49:03;;;;;;;5.67;2.17;;;15.40;99.90;;;;;;5104685;28;20436;-72
2022/07/12 01:51:49;;;;;;;3.27;1.90;;;15.50;99.90;;;;;;5122103;22;20483;-72
2022/07/12 01:54:35;;;;;;;3.57;2.40;;;15.50;99.90;;;;;;5104022;28;20440;-72
2022/07/12 01:57:22;;;;;;;2.90;2.40;;;15.50;99.90;;;;;;5108393;28;20519;-72
2022/07/12 02:00:09;;;;;;;2.63;2.10;;;15.50;99.90;;;;;;5104881;28;20460;-72
2022/07/12 02:02:55;;;;;;;2.57;2.27;;;15.60;99.90;;;;;;5103663;28;20456;-72
2022/07/12 02:05:40;;;;;;;3.17;2.17;;;15.60;99.90;;;;;;5106167;28;20493;-72
2022/07/12 02:08:26;;;;;;;1.93;1.60;;;15.60;99.90;;;;;;5106554;28;20810;-72
2022/07/12 02:11:11;;;;;;;2.53;2.00;;;15.60;99.90;;;;;;5106783;28;20500;-72
2022/07/12 02:13:58;;;;;;;3.10;2.30;;;15.60;99.90;;;;;;5106159;28;20453;-72
2022/07/12 02:16:44;;;;;;;2.60;1.90;;;15.60;99.90;;;;;;5106904;28;20492;-72
2022/07/12 02:19:30;;;;;;;2.73;1.90;;;15.40;99.90;;;;;;5102550;28;20518;-72
2022/07/12 02:22:15;;;;;;;2.30;1.90;;;15.30;99.90;;;;;;5101899;28;20571;-72
2022/07/12 02:25:01;;;;;;;3.13;2.00;;;15.20;99.90;;;;;;5097342;28;20950;-72
2022/07/12 02:27:47;;;;;;;2.67;2.17;;;15.10;99.90;;;;;;5111852;28;20961;-72
2022/07/12 02:30:34;;;;;;;2.60;2.00;;;15.00;99.90;;;;;;5106325;28;20448;-72
2022/07/12 02:33:20;;;;;;;2.70;2.30;;;15.00;99.90;;;;;;5104750;27;20440;-72
2022/07/12 02:36:06;;;;;;;2.63;2.03;;;15.00;99.90;;;;;;5097178;28;20423;-72
2022/07/12 02:38:52;;;;;;;2.90;2.27;;;15.00;99.90;;;;;;5108146;28;20449;-72
2022/07/12 02:41:38;;;;;;;4.47;2.43;;;15.00;99.90;;;;;;5097983;28;20845;-72
2022/07/12 02:44:23;;;;;;;5.00;2.10;;;15.00;99.90;;;;;;5114105;28;20428;-72
2022/07/12 02:47:10;;;;;;;4.70;1.90;;;15.00;99.90;;;;;;5113963;28;20468;-72
2022/07/12 02:49:56;;;;;;;4.40;2.10;;;15.00;99.90;;;;;;5104029;28;20449;-72
2022/07/12 02:52:41;;;;;;;3.87;3.00;;;15.00;99.90;;;;;;5102652;28;20529;-72
2022/07/12 02:55:27;;;;;;;4.00;2.63;;;14.90;99.90;;;;;;5107508;28;20765;-72
2022/07/12 02:58:13;;;;;;;4.10;2.00;;;14.90;99.90;;;;;;5105782;28;20819;-72
2022/07/12 03:00:58;;;;;;;9.37;2.37;;;14.80;99.90;;;;;;5105874;28;21048;-72
2022/07/12 03:03:45;;;;;;;4.50;2.43;;;14.90;99.90;;;;;;5107686;28;20447;-72
2022/07/12 03:06:31;;;;;;;2.37;1.80;;;14.90;99.90;;;;;;5099311;28;20486;-72
2022/07/12 03:09:18;;;;;;;3.43;2.10;;;14.80;99.90;;;;;;5112232;28;21221;-72
2022/07/12 03:12:04;;;;;;;2.77;2.10;;;14.90;99.90;;;;;;5103058;28;20471;-72
2022/07/12 03:14:50;;;;;;;2.60;1.90;;;14.90;99.90;;;;;;5106135;27;20449;-72
2022/07/12 03:17:36;;;;;;;2.57;1.93;;;14.90;99.90;;;;;;5112253;27;20448;-72
2022/07/12 03:20:23;;;;;;;2.20;1.57;;;14.90;99.90;;;;;;5110646;28;20473;-72
2022/07/12 03:23:08;;;;;;;2.90;2.40;;;15.00;99.90;;;;;;5095741;28;20967;-72
2022/07/12 03:25:54;;;;;;;4.00;1.80;;;14.90;99.90;;;;;;5111399;28;20452;-72
2022/07/12 03:28:40;;;;;;;3.63;2.37;;;15.00;99.90;;;;;;5105776;28;21066;-72
2022/07/12 03:31:26;;;;;;;3.00;2.13;;;15.00;99.90;;;;;;5101795;28;20462;-72
2022/07/12 03:34:11;;;;;;;4.20;2.20;;;14.90;99.90;;;;;;5093073;28;20939;-72
2022/07/12 03:36:58;;;;;;;2.60;2.17;;;14.90;99.90;;;;;;5109331;28;20574;-72
2022/07/12 03:39:44;;;;;;;4.57;2.03;;;15.00;99.90;;;;;;5111136;28;20453;-72
2022/07/12 03:42:29;;;;;;;2.93;2.13;;;15.00;99.90;;;;;;5102191;28;20560;-72
2022/07/12 03:45:16;;;;;;;2.67;1.93;;;15.00;99.90;;;;;;5105132;28;21087;-72
2022/07/12 03:48:01;;;;;;;2.90;2.07;;;15.00;99.90;;;;;;5112061;28;20448;-72
2022/07/12 03:50:47;;;;;;;3.43;2.07;;;14.80;99.90;;;;;;5105743;28;20945;-72
2022/07/12 03:53:35;;;;;;;2.40;1.80;;;14.70;99.90;;;;;;5104150;28;20944;-72
2022/07/12 03:59:20;;;;;;;2.97;2.40;;;14.80;99.90;;;;;;5104026;28;20461;-72
2022/07/12 04:02:06;;;;;;;2.90;1.93;;;14.80;99.90;;;;;;5099324;28;20489;-72
2022/07/12 04:04:52;;;;;;;2.50;1.90;;;14.80;99.90;;;;;;5101999;28;20471;-72
2022/07/12 04:07:38;;;;;;;3.50;1.93;;;14.80;99.90;;;;;;5104475;28;20468;-72
2022/07/12 04:10:25;;;;;;;2.20;1.77;;;14.80;99.90;;;;;;5109481;28;20933;-72
2022/07/12 04:13:11;;;;;;;3.90;2.30;;;14.90;99.90;;;;;;5108833;28;20415;-72
2022/07/12 04:15:56;;;;;;;2.47;1.90;;;14.90;99.90;;;;;;5110414;28;20495;-72
2022/07/12 04:18:42;;;;;;;4.37;2.40;;;14.80;99.90;;;;;;5101086;28;20977;-72
2022/07/12 04:21:28;;;;;;;2.80;2.20;;;14.70;99.90;;;;;;5101070;27;20549;-72
2022/07/12 04:24:13;;;;;;;2.93;2.13;;;14.70;99.90;;;;;;5104320;28;20428;-72
2022/07/12 04:27:00;;;;;;;3.73;2.10;;;14.70;99.90;;;;;;5112051;28;20421;-72
2022/07/12 04:29:46;;;;;;;2.40;1.80;;;14.70;99.90;;;;;;5100051;28;20426;-72
2022/07/12 04:32:32;;;;;;;2.53;2.13;;;14.70;99.90;;;;;;5100727;28;21004;-72
2022/07/12 04:35:18;;;;;;;3.27;2.40;;;14.70;99.90;;;;;;5111270;28;20946;-71
2022/07/12 04:38:03;;;;;;;2.23;1.90;;;14.90;99.90;;;;;;5111695;28;20424;-72
2022/07/12 04:40:49;;;;;;;2.27;1.70;;;15.00;99.90;;;;;;5094102;28;20474;-72
2022/07/12 04:43:36;;;;;;;2.60;2.30;;;15.10;99.90;;;;;;5100657;28;20447;-73
2022/07/12 04:46:21;;;;;;;5.03;1.70;;;15.20;99.90;;;;;;5100462;28;20452;-72
2022/07/12 04:49:07;;;;;;;2.07;1.83;;;15.20;99.90;;;;;;5094034;28;20408;-72
2022/07/12 04:51:52;;;;;;;2.87;2.10;;;15.20;99.90;;;;;;5101287;27;20548;-72
2022/07/12 04:54:38;;;;;;;2.13;1.60;;;15.30;99.90;;;;;;5106395;27;20448;-72
2022/07/12 04:57:24;;;;;;;6.63;1.90;;;15.40;99.90;;;;;;5104471;28;20446;-73
2022/07/12 05:00:13;;;;;;;2.53;1.90;;;15.50;99.90;;;;;;5104935;28;20453;-72
2022/07/12 05:02:58;;;;;;;2.70;1.80;;;15.70;99.90;;;;;;5101696;27;20495;-71
2022/07/12 05:05:45;;;;;;;3.53;1.90;;;15.80;99.90;;;;;;5107751;28;20789;-71
2022/07/12 05:08:30;;;;;;;2.53;2.20;;;15.90;99.90;;;;;;5108176;28;20818;-72
2022/07/12 05:11:16;;;;;;;3.00;1.90;;;15.90;99.90;;;;;;5102033;28;20431;-72
2022/07/12 05:14:02;;;;;;;3.20;2.13;;;15.90;99.90;;;;;;5107237;28;20464;-70
2022/07/12 05:16:49;;;;;;;3.60;2.10;;;16.00;99.90;;;;;;5106566;28;20813;-73
2022/07/12 05:19:35;;;;;;;2.70;2.27;;;16.10;99.90;;;;;;5099507;28;20463;-72
2022/07/12 05:22:21;;;;;;;4.30;2.43;;;16.10;99.90;;;;;;5103233;28;20472;-72
2022/07/12 05:25:08;;;;;;;5.00;2.40;;;16.20;99.90;;;;;;5103057;28;20432;-72
2022/07/12 05:27:54;;;;;;;3.10;2.13;;;16.30;99.90;;;;;;5108627;28;20925;-72
2022/07/12 05:30:39;;;;;;;7.60;2.40;;;16.40;99.90;;;;;;5093936;28;20519;-72
2022/07/12 05:33:27;;;;;;;2.67;1.87;;;16.60;99.90;;;;;;5091797;28;20802;-72
2022/07/12 05:36:12;;;;;;;2.67;2.07;;;16.70;99.90;;;;;;5091271;28;20503;-72
2022/07/12 05:38:58;;;;;;;2.80;1.97;;;16.90;99.90;;;;;;5094731;28;20970;-72
2022/07/12 05:41:44;;;;;;;2.53;1.90;;;16.90;99.90;;;;;;5102258;28;20450;-72
2022/07/12 05:44:29;;;;;;;3.70;2.40;;;16.90;99.90;;;;;;5109248;28;20460;-73
2022/07/12 05:47:15;;;;;;;4.77;2.03;;;17.00;99.90;;;;;;5111624;28;20479;-72
2022/07/12 05:50:02;;;;;;;2.93;1.87;;;17.10;99.90;;;;;;5107394;28;20453;-72
2022/07/12 05:55:52;;;;;;;3.00;2.00;;;17.40;99.90;;;;;;5105934;28;20395;-72
2022/07/12 05:58:38;;;;;;;3.80;1.87;;;17.50;99.90;;;;;;5110024;28;20444;-72
2022/07/12 06:01:23;;;;;;;3.87;1.93;;;17.60;99.90;;;;;;5096649;28;21013;-73
2022/07/12 06:04:08;;;;;;;5.60;2.40;;;17.60;99.90;;;;;;5091107;28;20425;-72
2022/07/12 06:06:56;;;;;;;4.23;2.23;;;17.70;99.90;;;;;;5106476;28;20448;-72
2022/07/12 06:09:42;;;;;;;3.07;1.90;;;17.90;99.90;;;;;;5107839;28;20449;-72
2022/07/12 06:12:28;;;;;;;2.80;2.03;;;17.90;99.90;;;;;;5108550;28;20812;-72
2022/07/12 06:15:14;;;;;;;2.10;1.70;;;18.00;99.90;;;;;;5111294;28;20463;-72
2022/07/12 06:18:00;;;;;;;4.87;2.27;;;18.10;99.90;;;;;;5110992;28;20432;-72
2022/07/12 06:20:45;;;;;;;2.50;1.97;;;18.20;99.90;;;;;;5098405;28;20604;-72
2022/07/12 06:23:32;;;;;;;2.47;1.93;;;18.30;99.90;;;;;;5106993;28;20426;-72
2022/07/12 06:26:18;;;;;;;8.63;2.60;;;18.40;99.90;;;;;;5108769;28;20506;-72
2022/07/12 06:29:04;;;;;;;8.43;2.43;;;18.40;99.90;;;;;;5110683;28;20409;-73
2022/07/12 06:31:49;;;;;;;2.80;1.77;;;18.60;99.90;;;;;;5090814;28;20578;-73
2022/07/12 06:34:38;;;;;;;2.50;1.90;;;18.70;99.90;;;;;;5096668;28;20546;-73
2022/07/12 06:37:24;;;;;;;4.40;1.70;;;18.90;99.90;;;;;;5109255;28;20563;-72
2022/07/12 06:40:15;;;;;;;3.70;2.00;;;19.10;99.90;;;;;;5091737;28;20826;-72
2022/07/12 06:43:00;;;;;;;4.47;1.93;;;19.20;99.90;;;;;;5104536;28;20457;-72
2022/07/12 06:45:46;;;;;;;2.87;2.13;;;19.30;99.90;;;;;;5110493;28;20474;-72
2022/07/12 06:48:31;;;;;;;2.43;1.93;;;19.50;99.90;;;;;;5109609;28;20599;-72
2022/07/12 06:51:17;;;;;;;2.30;1.37;;;19.50;99.90;;;;;;5102184;28;21046;-72
2022/07/12 06:54:03;;;;;;;2.93;1.30;;;19.60;99.90;;;;;;5099141;28;20459;-72
2022/07/12 06:56:50;;;;;;;2.80;2.03;;;19.80;99.90;;;;;;5090281;28;20950;-72
2022/07/12 06:59:36;;;;;;;2.17;1.70;;;19.90;99.90;;;;;;5093326;28;20611;-72
2022/07/12 07:02:21;;;;;;;1.90;1.33;;;19.90;99.90;;;;;;5090498;28;20484;-73
2022/07/12 07:05:08;;;;;;;4.00;1.53;;;20.10;99.90;;;;;;5108934;28;20417;-73
2022/07/12 07:07:53;;;;;;;2.07;1.43;;;20.20;99.90;;;;;;5110645;28;20421;-72
2022/07/12 07:10:39;;;;;;;2.03;1.40;;;20.20;99.90;;;;;;5102823;28;20798;-72
2022/07/12 07:13:26;;;;;;;2.80;1.30;;;20.30;99.90;;;;;;5093965;28;20421;-72
2022/07/12 07:16:12;;;;;;;1.70;1.27;;;20.40;99.90;;;;;;5094163;28;20418;-72
2022/07/12 07:18:57;;;;;;;3.80;1.30;;;20.40;99.90;;;;;;5098314;28;20534;-72
2022/07/12 07:21:43;;;;;;;1.93;1.27;;;20.50;99.50;;;;;;5103552;28;20513;-72
2022/07/12 07:24:28;;;;;;;1.93;1.30;;;20.60;97.40;;;;;;5097034;28;20417;-72
2022/07/12 07:27:13;;;;;;;1.60;1.07;;;20.70;97.90;;;;;;5114155;28;20421;-72
2022/07/12 07:33:03;;;;;;;6.10;3.43;;;20.90;96.80;;;;;;5097063;28;20464;-72
2022/07/12 07:35:50;;;;;;;6.53;4.43;;;20.90;95.80;;;;;;5113822;28;21046;-72
2022/07/12 07:38:36;;;;;;;5.30;2.20;;;21.00;93.20;;;;;;5111810;28;20453;-72
2022/07/12 07:41:21;;;;;;;6.07;4.37;;;21.10;91.70;;;;;;5093453;28;20473;-72
2022/07/12 07:44:07;;;;;;;3.80;1.47;;;21.20;91.70;;;;;;5093831;28;20901;-72
2022/07/12 07:46:54;;;;;;;1.80;1.00;;;21.30;91.70;;;;;;5093739;28;20418;-73
2022/07/12 07:49:40;;;;;;;1.80;1.00;;;21.30;90.20;;;;;;5104056;28;20453;-72
2022/07/12 07:52:26;;;;;;;1.80;1.00;;;21.30;85.60;;;;;;5118312;22;20867;-71
2022/07/12 07:55:12;;;;;;;2.50;1.30;;;21.40;87.80;;;;;;5101380;28;20461;-72
2022/07/12 07:57:59;;;;;;;2.20;1.40;;;21.50;86.80;;;;;;5092975;28;20422;-72
2022/07/12 08:00:44;;;;;;;1.90;0.90;;;21.50;87.00;;;;;;5109775;28;20777;-71
2022/07/12 08:03:32;;;;;;;1.93;1.23;;;21.60;86.20;;;;;;5113771;28;20471;-72
2022/07/12 08:06:17;;;;;;;1.70;0.80;;;21.70;83.00;;;;;;5113562;28;20417;-71
2022/07/12 08:09:03;;;;;;;1.50;0.87;;;21.70;79.80;;;;;;5104936;28;20614;-71
2022/07/12 08:11:48;;;;;;;2.53;0.90;;;21.70;79.20;;;;;;5093053;28;20796;-71
2022/07/12 08:14:34;;;;;;;2.80;1.00;;;21.70;78.80;;;;;;5106731;28;20526;-71
2022/07/12 08:17:20;;;;;;;1.77;0.80;;;21.70;77.60;;;;;;5113299;28;20413;-72
2022/07/12 08:20:08;;;;;;;1.80;1.00;;;21.70;76.00;;;;;;5094233;28;20450;-71
2022/07/12 08:22:54;;;;;;;2.20;1.00;;;21.80;76.10;;;;;;5092657;28;20835;-71
2022/07/12 08:25:40;;;;;;;4.03;0.80;;;22.00;72.60;;;;;;5106560;28;20793;-71
2022/07/12 08:28:25;;;;;;;2.53;0.90;;;22.00;74.50;;;;;;5108566;28;20522;-72
2022/07/12 08:31:13;;;;;;;2.10;1.00;;;22.10;74.30;;;;;;5092576;28;20414;-71
2022/07/12 08:33:59;;;;;;;1.63;0.90;;;22.10;70.60;;;;;;5092296;28;20926;-71
2022/07/12 08:36:46;;;;;;;2.30;1.00;;;22.20;70.50;;;;;;5113295;28;20781;-71
2022/07/12 08:39:32;;;;;;;2.23;1.20;;;22.20;67.40;;;;;;5096512;28;20445;-71
2022/07/12 08:42:18;;;;;;;1.40;0.70;;;22.30;68.30;;;;;;5091862;28;20845;-71
2022/07/12 08:45:05;;;;;;;1.50;0.70;;;22.30;68.70;;;;;;5109703;28;20441;-72
2022/07/12 08:47:50;;;;;;;2.40;1.03;;;22.40;64.60;;;;;;5110273;28;20568;-71
2022/07/12 08:50:36;;;;;;;1.50;0.80;;;22.50;65.10;;;;;;5102752;28;20422;-72
2022/07/12 08:53:23;;;;;;;1.60;0.70;;;22.50;63.50;;;;;;5094994;28;20472;-72
2022/07/12 08:56:32;;;;;;;1.50;0.60;;;22.60;62.50;;;;;;5093853;28;20803;-72
2022/07/12 08:59:19;;;;;;;2.23;0.80;;;22.60;63.00;;;;;;5101165;27;20460;-71
2022/07/12 09:02:05;;;;;;;1.83;0.70;;;22.70;61.20;;;;;;5102713;27;20501;-71
2022/07/12 09:05:07;;;;;;;1.60;0.70;;;22.80;62.20;;;;;;5110011;27;20436;-71
2022/07/12 09:08:03;;;;;;;7.03;0.87;;;22.80;57.60;;;;;;5105150;28;20494;-71
2022/07/12 09:11:00;;;;;;;1.40;0.60;;;22.90;57.60;;;;;;5112623;27;20570;-71
2022/07/12 09:13:53;;;;;;;1.40;0.50;;;22.80;57.20;;;;;;5104731;28;20465;-72
2022/07/12 09:16:39;;;;;;;1.60;0.63;;;22.90;55.80;;;;;;5107791;28;21043;-71
2022/07/12 09:19:25;;;;;;;1.60;0.60;;;22.90;56.90;;;;;;5104543;27;20543;-71
2022/07/12 09:22:17;;;;;;;1.60;0.70;;;23.00;56.10;;;;;;5106384;28;20996;-71
2022/07/12 09:25:10;;;;;;;2.10;0.80;;;23.00;53.50;;;;;;5108802;27;20611;-71
2022/07/12 09:27:58;;;;;;;1.70;0.70;;;23.10;52.70;;;;;;5103913;27;20461;-70
2022/07/12 09:30:52;;;;;;;1.57;0.70;;;23.10;50.70;;;;;;5108287;27;20460;-71
2022/07/12 09:36:41;;;;;;;1.80;0.80;;;23.00;50.50;;;;;;5107265;28;20494;-72
2022/07/12 09:39:27;;;;;;;1.80;0.80;;;23.10;53.00;;;;;;5104710;27;20437;-71
2022/07/12 09:42:13;;;;;;;2.27;0.97;;;23.30;49.80;;;;;;5105573;28;20480;-71
2022/07/12 09:45:02;;;;;;;2.23;0.70;;;23.40;51.10;;;;;;5108854;28;20445;-71
2022/07/12 09:47:49;;;;;;;7.73;0.70;;;23.40;49.70;;;;;;5103686;27;20472;-71
2022/07/12 09:50:36;;;;;;;1.70;0.77;;;23.50;53.40;;;;;;5106427;28;20448;-70
2022/07/12 09:53:27;;;;;;;3.33;0.70;;;23.60;51.00;;;;;;5105686;28;20472;-69
2022/07/12 09:56:15;;;;;;;1.63;0.70;;;23.80;50.20;;;;;;5103988;28;20448;-71
2022/07/12 09:59:04;;;;;;;4.93;0.90;;;23.80;49.20;;;;;;5101597;28;20575;-71
2022/07/12 10:01:51;;;;;;;1.40;0.60;;;23.80;46.70;;;;;;5111522;28;20607;-71
2022/07/12 10:04:38;;;;;;;1.70;0.80;;;23.70;48.10;;;;;;5111174;28;20445;-71
2022/07/12 10:07:23;;;;;;;1.50;0.70;;;23.70;49.60;;;;;;5104565;28;20464;-71
2022/07/12 10:10:11;;;;;;;1.73;0.80;;;23.80;50.30;;;;;;5090867;28;20413;-70
2022/07/12 10:12:57;;;;;;;1.73;0.80;;;23.80;48.30;;;;;;5102728;28;20464;-70
2022/07/12 10:15:44;;;;;;;1.73;0.83;;;24.00;46.40;;;;;;5110884;28;20420;-70
2022/07/12 10:18:31;;;;;;;1.57;0.67;;;24.00;46.80;;;;;;5094629;28;20449;-70
2022/07/12 10:21:21;;;;;;;1.77;0.70;;;24.00;45.10;;;;;;5106354;28;21058;-70
2022/07/12 10:24:51;;;;;;;1.87;0.83;;;24.10;46.30;;;;;;5102579;28;20421;-70
2022/07/12 10:27:38;;;;;;;1.50;0.70;;;24.20;45.70;;;;;;5103826;28;20494;-70
2022/07/12 10:30:24;;;;;;;2.20;0.97;;;24.40;43.90;;;;;;5099491;28;20452;-71
2022/07/12 10:33:17;;;;;;;1.90;0.80;;;24.50;43.20;;;;;;5104621;28;20444;-70
2022/07/12 10:36:06;;;;;;;2.87;0.63;;;24.50;40.80;;;;;;5111188;28;20833;-70
2022/07/12 10:39:13;;;;;;;1.47;0.60;;;24.50;42.70;;;;;;5091370;28;20945;-70
2022/07/12 10:42:14;;;;;;;1.83;0.97;;;24.50;40.60;;;;;;5103710;28;20490;-70
2022/07/12 10:45:12;;;;;;;1.60;0.73;;;24.60;42.60;;;;;;5112544;28;20420;-70
2022/07/12 10:47:59;;;;;;;1.70;0.90;;;24.70;42.10;;;;;;5100328;28;20449;-70
2022/07/12 10:50:59;;;;;;;1.60;0.70;;;24.80;41.80;;;;;;5113757;28;20916;-70
2022/07/12 10:53:48;;;;;;;1.83;1.00;;;24.80;42.00;;;;;;5105927;28;20988;-71
2022/07/12 10:56:38;;;;;;;1.90;0.90;;;25.00;41.20;;;;;;5097371;28;20447;-70
2022/07/12 10:59:25;;;;;;;1.63;0.80;;;25.00;40.70;;;;;;5104462;28;20444;-70
2022/07/12 11:02:12;;;;;;;1.60;0.80;;;25.10;41.50;;;;;;5114996;28;20464;-70
2022/07/12 11:04:58;;;;;;;1.90;0.80;;;25.20;42.60;;;;;;5114503;28;20479;-70
2022/07/12 11:07:43;;;;;;;1.70;0.87;;;25.20;40.20;;;;;;5105037;28;20928;-71
2022/07/12 11:10:30;;;;;;;1.70;0.90;;;25.20;41.20;;;;;;5097250;28;20429;-71
2022/07/12 11:13:23;;;;;;;1.50;0.70;;;25.30;41.80;;;;;;5097292;28;20459;-71
2022/07/12 11:16:09;;;;;;;2.17;0.90;;;25.30;38.30;;;;;;5111604;28;20825;-71
2022/07/12 11:18:56;;;;;;;2.03;0.80;;;25.30;36.60;;;;;;5094093;28;20499;-71
2022/07/12 11:21:44;;;;;;;1.50;0.67;;;25.40;36.40;;;;;;5093851;28;20437;-70
2022/07/12 11:24:34;;;;;;;1.80;0.80;;;25.20;37.20;;;;;;5102284;28;20921;-70
2022/07/12 11:27:22;;;;;;;1.80;0.90;;;25.30;37.10;;;;;;5096682;28;20449;-70
2022/07/12 11:30:09;;;;;;;1.70;0.80;;;25.40;39.30;;;;;;5110119;28;20471;-70
2022/07/12 11:32:54;;;;;;;1.90;0.90;;;25.60;36.40;;;;;;5114052;28;20444;-70
2022/07/12 11:35:41;;;;;;;1.90;0.80;;;25.70;34.90;;;;;;5112332;28;20474;-69
2022/07/12 11:38:27;;;;;;;1.70;0.80;;;25.50;34.70;;;;;;5109854;28;20443;-70
2022/07/12 11:41:15;;;;;;;1.90;0.80;;;25.50;36.80;;;;;;5109132;28;20457;-70
2022/07/12 11:44:01;;;;;;;1.60;0.70;;;25.70;35.80;;;;;;5107087;27;20463;-70
2022/07/12 11:46:52;;;;;;;2.77;1.00;;;25.80;37.20;;;;;;5098998;27;20495;-71
2022/07/12 11:49:37;;;;;;;2.23;0.93;;;26.00;35.90;;;;;;5103785;27;20453;-72
2022/07/12 11:52:24;;;;;;;1.70;0.90;;;26.10;33.90;;;;;;5112122;27;20980;-72
2022/07/12 11:55:10;;;;;;;1.50;0.70;;;26.20;33.80;;;;;;5108974;27;20453;-72
2022/07/12 11:58:05;;;;;;;1.67;0.70;;;26.30;33.50;;;;;;5108635;27;21080;-72
2022/07/12 12:00:53;;;;;;;2.20;0.90;;;26.40;34.50;;;;;;5109928;27;20481;-72
2022/07/12 12:03:46;;;;;;;4.33;0.80;;;26.50;35.00;;;;;;5110784;28;21040;-72
2022/07/12 12:06:32;;;;;;;3.30;0.80;;;26.70;31.90;;;;;;5104922;27;20504;-72
2022/07/12 12:09:17;;;;;;;2.57;0.90;;;26.70;31.90;;;;;;5109194;27;20537;-72
2022/07/12 12:12:03;;;;;;;1.80;0.80;;;26.70;31.90;;;;;;5103182;28;20494;-72
2022/07/12 12:14:49;;;;;;;1.90;0.80;;;26.70;31.90;;;;;;5099766;28;20440;-72
2022/07/12 12:17:37;;;;;;;1.50;0.63;;;26.80;32.00;;;;;;5106645;27;20456;-72
2022/07/12 12:20:25;;;;;;;1.77;0.83;;;26.90;29.60;;;;;;5112048;27;20453;-72
2022/07/12 12:23:17;;;;;;;4.33;1.10;;;26.80;29.70;;;;;;5108554;28;20857;-72
2022/07/12 12:26:11;;;;;;;1.80;0.90;;;26.90;29.50;;;;;;5107823;28;20806;-72
2022/07/12 12:28:56;;;;;;;1.77;0.83;;;27.00;29.40;;;;;;5110145;27;20579;-72
2022/07/12 12:31:42;;;;;;;4.90;1.20;;;27.10;30.90;;;;;;5110396;27;20447;-72
2022/07/12 12:34:29;;;;;;;1.70;0.70;;;27.20;32.30;;;;;;5104966;27;20933;-72
2022/07/12 12:37:15;;;;;;;2.03;0.67;;;27.20;30.30;;;;;;5107095;27;20444;-72
2022/07/12 12:40:00;;;;;;;1.80;0.80;;;27.20;30.50;;;;;;5109201;28;20453;-72
2022/07/12 12:42:46;;;;;;;2.00;0.90;;;27.20;32.30;;;;;;5104234;28;20493;-70
2022/07/12 12:45:31;;;;;;;1.90;0.83;;;27.40;32.50;;;;;;5104939;28;20842;-72
2022/07/12 12:48:20;;;;;;;2.10;0.70;;;27.50;30.00;;;;;;5110443;27;20444;-72
2022/07/12 12:51:08;;;;;;;1.63;0.60;;;27.50;28.50;;;;;;5110154;27;20445;-72
2022/07/12 12:53:57;;;;;;;1.67;0.67;;;27.50;28.60;;;;;;5107309;27;20874;-72
2022/07/12 12:56:43;;;;;;;1.60;0.70;;;27.60;29.20;;;;;;5105379;27;20437;-72
2022/07/12 12:59:29;;;;;;;1.70;0.70;;;27.70;28.50;;;;;;5106399;28;20952;-72
2022/07/12 13:02:16;;;;;;;1.70;0.80;;;27.70;28.60;;;;;;5109142;28;20486;-73
2022/07/12 13:05:01;;;;;;;1.70;0.70;;;27.80;28.00;;;;;;5105575;28;20445;-72
2022/07/12 13:07:48;;;;;;;2.00;0.90;;;27.90;27.50;;;;;;5111820;27;20805;-72
2022/07/12 13:10:35;;;;;;;1.90;0.77;;;28.00;27.90;;;;;;5107506;28;20587;-72
2022/07/12 13:13:20;;;;;;;2.30;1.03;;;28.10;26.90;;;;;;5107576;28;20465;-72
2022/07/12 13:16:07;;;;;;;1.80;0.70;;;28.10;28.00;;;;;;5108324;27;20573;-72
2022/07/12 13:18:56;;;;;;;1.90;0.80;;;28.20;27.40;;;;;;5111184;27;20552;-72
2022/07/12 13:21:41;;;;;;;2.00;0.80;;;28.30;26.40;;;;;;5109269;28;20437;-73
2022/07/12 13:24:28;;;;;;;3.00;1.40;;;28.40;27.70;;;;;;5107254;28;20472;-72
2022/07/12 13:27:15;;;;;;;3.73;0.90;;;28.50;27.00;;;;;;5105650;27;20976;-73
2022/07/12 13:30:00;;;;;;;1.80;0.80;;;28.60;26.70;;;;;;5106089;28;20525;-72
2022/07/12 13:32:47;;;;;;;3.27;1.00;;;28.80;26.30;;;;;;5109292;28;20460;-72
2022/07/12 13:35:33;;;;;;;2.30;0.80;;;28.80;26.10;;;;;;5103540;28;20452;-72
2022/07/12 13:38:18;;;;;;;5.07;0.90;;;28.80;25.40;;;;;;5107039;28;20448;-72
2022/07/12 13:41:05;;;;;;;1.70;0.70;;;28.80;25.80;;;;;;5103631;28;20453;-72
2022/07/12 13:43:51;;;;;;;2.10;1.10;;;28.80;28.00;;;;;;5108807;27;20510;-72
2022/07/12 13:46:37;;;;;;;2.77;1.23;;;29.00;25.30;;;;;;5102081;28;20494;-72
2022/07/12 13:49:22;;;;;;;2.03;0.70;;;29.10;26.70;;;;;;5108295;27;20546;-73
2022/07/12 13:52:08;;;;;;;1.90;0.80;;;29.30;26.60;;;;;;5119589;22;20472;-75
2022/07/12 13:54:54;;;;;;;1.83;0.87;;;29.50;24.50;;;;;;5088047;28;20445;-75
2022/07/12 13:57:41;;;;;;;2.60;1.07;;;29.60;24.50;;;;;;5087934;28;20802;-75
2022/07/12 14:00:27;;;;;;;2.53;0.80;;;29.70;25.20;;;;;;5091378;28;20460;-74
2022/07/12 14:03:12;;;;;;;1.90;0.80;;;29.70;24.00;;;;;;5089700;28;20473;-72
2022/07/12 14:05:58;;;;;;;2.20;1.00;;;29.70;24.30;;;;;;5082332;28;20446;-75
2022/07/12 14:08:43;;;;;;;1.80;0.77;;;29.80;23.70;;;;;;5087968;28;20480;-75
2022/07/12 14:11:29;;;;;;;3.40;0.97;;;29.80;23.80;;;;;;5085615;28;20457;-73
2022/07/12 14:14:17;;;;;;;2.10;0.90;;;29.80;23.60;;;;;;5084790;28;20520;-74
2022/07/12 14:17:02;;;;;;;2.10;0.80;;;29.80;23.60;;;;;;5084534;28;20457;-74
2022/07/12 14:19:48;;;;;;;2.00;0.90;;;29.70;23.10;;;;;;5091409;28;21069;-75
2022/07/12 14:22:34;;;;;;;2.00;0.80;;;29.80;24.40;;;;;;5091242;28;20979;-74
2022/07/12 14:25:20;;;;;;;2.57;1.10;;;29.80;23.60;;;;;;5083800;28;20463;-75
2022/07/12 14:28:05;;;;;;;3.50;0.80;;;29.90;22.10;;;;;;5088964;28;20942;-75
2022/07/12 14:30:53;;;;;;;2.00;0.90;;;29.90;23.20;;;;;;5091641;28;20452;-75
2022/07/12 14:33:39;;;;;;;2.20;0.90;;;29.90;23.20;;;;;;5090113;28;20449;-73
2022/07/12 14:36:24;;;;;;;2.33;0.83;;;30.00;23.60;;;;;;5090434;28;20520;-74
2022/07/12 14:39:10;;;;;;;4.33;1.07;;;30.00;22.20;;;;;;5090443;28;20436;-72
2022/07/12 14:41:56;;;;;;;4.27;0.73;;;30.00;21.80;;;;;;5088905;28;20955;-75